sensor_id;sensor_type;location;lat;lon;timestamp;temperature;humidity
31443;SHT31;18065;55.876;9.830;2023-12-28T00:00:04;22.47;46.22
31443;SHT31;18065;55.876;9.830;2023-12-28T00:02:33;22.45;46.25
31443;SHT31;18065;55.876;9.830;2023-12-28T00:05:03;22.47;46.20
31443;SHT31;18065;55.876;9.830;2023-12-28T00:07:35;22.47;46.16
31443;SHT31;18065;55.876;9.830;2023-12-28T00:10:05;22.47;46.18
31443;SHT31;18065;55.876;9.830;2023-12-28T00:12:34;22.42;46.19
31443;SHT31;18065;55.876;9.830;2023-12-28T00:15:03;22.42;46.12
31443;SHT31;18065;55.876;9.830;2023-12-28T00:17:32;22.39;46.26
31443;SHT31;18065;55.876;9.830;2023-12-28T00:20:01;22.39;46.29
31443;SHT31;18065;55.876;9.830;2023-12-28T00:22:30;22.39;46.25
31443;SHT31;18065;55.876;9.830;2023-12-28T00:24:58;22.38;46.19
31443;SHT31;18065;55.876;9.830;2023-12-28T00:27:27;22.35;46.26
31443;SHT31;18065;55.876;9.830;2023-12-28T00:29:56;22.38;46.20
31443;SHT31;18065;55.876;9.830;2023-12-28T00:32:25;22.37;46.26
31443;SHT31;18065;55.876;9.830;2023-12-28T00:34:54;22.35;46.33
31443;SHT31;18065;55.876;9.830;2023-12-28T00:37:23;22.35;46.27
31443;SHT31;18065;55.876;9.830;2023-12-28T00:39:52;22.34;46.32
31443;SHT31;18065;55.876;9.830;2023-12-28T00:42:23;22.35;46.26
31443;SHT31;18065;55.876;9.830;2023-12-28T00:44:52;22.34;46.23
31443;SHT31;18065;55.876;9.830;2023-12-28T00:47:21;22.34;46.37
31443;SHT31;18065;55.876;9.830;2023-12-28T00:49:50;22.37;46.36
31443;SHT31;18065;55.876;9.830;2023-12-28T00:52:19;22.32;46.44
31443;SHT31;18065;55.876;9.830;2023-12-28T00:54:47;22.31;46.45
31443;SHT31;18065;55.876;9.830;2023-12-28T00:57:16;22.29;46.48
31443;SHT31;18065;55.876;9.830;2023-12-28T00:59:48;22.31;46.48
31443;SHT31;18065;55.876;9.830;2023-12-28T01:02:17;22.31;46.49
31443;SHT31;18065;55.876;9.830;2023-12-28T01:04:46;22.29;46.47
31443;SHT31;18065;55.876;9.830;2023-12-28T01:07:15;22.29;46.54
31443;SHT31;18065;55.876;9.830;2023-12-28T01:09:43;22.31;46.50
31443;SHT31;18065;55.876;9.830;2023-12-28T01:12:12;22.31;46.49
31443;SHT31;18065;55.876;9.830;2023-12-28T01:14:41;22.32;46.50
31443;SHT31;18065;55.876;9.830;2023-12-28T01:17:13;22.31;46.49
31443;SHT31;18065;55.876;9.830;2023-12-28T01:19:42;22.31;46.52
31443;SHT31;18065;55.876;9.830;2023-12-28T01:22:11;22.31;46.55
31443;SHT31;18065;55.876;9.830;2023-12-28T01:24:40;22.28;46.54
31443;SHT31;18065;55.876;9.830;2023-12-28T01:27:09;22.32;46.57
31443;SHT31;18065;55.876;9.830;2023-12-28T01:29:38;22.28;46.61
31443;SHT31;18065;55.876;9.830;2023-12-28T01:32:06;22.31;46.59
31443;SHT31;18065;55.876;9.830;2023-12-28T01:34:39;22.28;46.63
31443;SHT31;18065;55.876;9.830;2023-12-28T01:37:08;22.24;46.73
31443;SHT31;18065;55.876;9.830;2023-12-28T01:39:38;22.28;46.63
31443;SHT31;18065;55.876;9.830;2023-12-28T01:42:07;22.27;46.74
31443;SHT31;18065;55.876;9.830;2023-12-28T01:44:35;22.31;46.73
31443;SHT31;18065;55.876;9.830;2023-12-28T01:47:05;22.27;46.77
31443;SHT31;18065;55.876;9.830;2023-12-28T01:49:37;22.29;46.71
31443;SHT31;18065;55.876;9.830;2023-12-28T01:52:07;22.29;46.74
31443;SHT31;18065;55.876;9.830;2023-12-28T01:54:37;22.31;46.74
31443;SHT31;18065;55.876;9.830;2023-12-28T01:57:06;22.31;46.77
31443;SHT31;18065;55.876;9.830;2023-12-28T01:59:35;22.31;46.76
31443;SHT31;18065;55.876;9.830;2023-12-28T02:02:04;22.29;46.76
31443;SHT31;18065;55.876;9.830;2023-12-28T02:04:33;22.31;46.78
31443;SHT31;18065;55.876;9.830;2023-12-28T02:07:05;22.31;46.70
31443;SHT31;18065;55.876;9.830;2023-12-28T02:09:35;22.32;46.78
31443;SHT31;18065;55.876;9.830;2023-12-28T02:12:05;22.31;46.77
31443;SHT31;18065;55.876;9.830;2023-12-28T02:14:34;22.29;46.79
31443;SHT31;18065;55.876;9.830;2023-12-28T02:17:06;22.28;46.79
31443;SHT31;18065;55.876;9.830;2023-12-28T02:19:42;22.27;46.78
31443;SHT31;18065;55.876;9.830;2023-12-28T02:22:15;22.28;46.81
31443;SHT31;18065;55.876;9.830;2023-12-28T02:25:08;22.25;46.78
31443;SHT31;18065;55.876;9.830;2023-12-28T02:27:39;22.28;46.80
31443;SHT31;18065;55.876;9.830;2023-12-28T02:30:10;22.27;46.81
31443;SHT31;18065;55.876;9.830;2023-12-28T02:32:50;22.28;46.81
31443;SHT31;18065;55.876;9.830;2023-12-28T02:35:29;22.25;46.81
31443;SHT31;18065;55.876;9.830;2023-12-28T02:38:04;22.28;46.82
31443;SHT31;18065;55.876;9.830;2023-12-28T02:40:38;22.28;46.79
31443;SHT31;18065;55.876;9.830;2023-12-28T02:43:07;22.27;46.82
31443;SHT31;18065;55.876;9.830;2023-12-28T02:45:37;22.29;46.81
31443;SHT31;18065;55.876;9.830;2023-12-28T02:48:06;22.29;46.83
31443;SHT31;18065;55.876;9.830;2023-12-28T02:50:36;22.27;46.83
31443;SHT31;18065;55.876;9.830;2023-12-28T02:53:04;22.29;46.84
31443;SHT31;18065;55.876;9.830;2023-12-28T02:55:36;22.27;46.84
31443;SHT31;18065;55.876;9.830;2023-12-28T02:58:05;22.27;46.79
31443;SHT31;18065;55.876;9.830;2023-12-28T03:00:34;22.29;46.81
31443;SHT31;18065;55.876;9.830;2023-12-28T03:03:03;22.28;46.78
31443;SHT31;18065;55.876;9.830;2023-12-28T03:05:32;22.27;46.81
31443;SHT31;18065;55.876;9.830;2023-12-28T03:08:01;22.28;46.82
31443;SHT31;18065;55.876;9.830;2023-12-28T03:10:30;22.27;46.79
31443;SHT31;18065;55.876;9.830;2023-12-28T03:13:01;22.25;46.81
31443;SHT31;18065;55.876;9.830;2023-12-28T03:15:30;22.27;46.78
31443;SHT31;18065;55.876;9.830;2023-12-28T03:17:59;22.28;46.78
31443;SHT31;18065;55.876;9.830;2023-12-28T03:20:28;22.27;46.78
31443;SHT31;18065;55.876;9.830;2023-12-28T03:22:57;22.28;46.79
31443;SHT31;18065;55.876;9.830;2023-12-28T03:25:26;22.25;46.79
31443;SHT31;18065;55.876;9.830;2023-12-28T03:27:55;22.27;46.77
31443;SHT31;18065;55.876;9.830;2023-12-28T03:30:26;22.28;46.75
31443;SHT31;18065;55.876;9.830;2023-12-28T03:32:55;22.27;46.74
31443;SHT31;18065;55.876;9.830;2023-12-28T03:35:24;22.27;46.74
31443;SHT31;18065;55.876;9.830;2023-12-28T03:37:53;22.27;46.72
31443;SHT31;18065;55.876;9.830;2023-12-28T03:40:22;22.25;46.74
31443;SHT31;18065;55.876;9.830;2023-12-28T03:42:51;22.24;46.73
31443;SHT31;18065;55.876;9.830;2023-12-28T03:45:19;22.25;46.71
31443;SHT31;18065;55.876;9.830;2023-12-28T03:47:51;22.27;46.64
31443;SHT31;18065;55.876;9.830;2023-12-28T03:50:20;22.25;46.72
31443;SHT31;18065;55.876;9.830;2023-12-28T03:52:49;22.25;46.68
31443;SHT31;18065;55.876;9.830;2023-12-28T03:55:18;22.25;46.67
31443;SHT31;18065;55.876;9.830;2023-12-28T03:57:46;22.24;46.66
31443;SHT31;18065;55.876;9.830;2023-12-28T04:00:17;22.24;46.68
31443;SHT31;18065;55.876;9.830;2023-12-28T04:02:46;22.24;46.72
31443;SHT31;18065;55.876;9.830;2023-12-28T04:05:18;22.24;46.70
31443;SHT31;18065;55.876;9.830;2023-12-28T04:07:47;22.24;46.80
31443;SHT31;18065;55.876;9.830;2023-12-28T04:10:28;22.22;46.76
31443;SHT31;18065;55.876;9.830;2023-12-28T04:12:57;22.22;46.75
31443;SHT31;18065;55.876;9.830;2023-12-28T04:15:26;22.21;46.79
31443;SHT31;18065;55.876;9.830;2023-12-28T04:17:55;22.24;46.74
31443;SHT31;18065;55.876;9.830;2023-12-28T04:20:26;22.21;46.71
31443;SHT31;18065;55.876;9.830;2023-12-28T04:22:55;22.21;46.80
31443;SHT31;18065;55.876;9.830;2023-12-28T04:25:24;22.24;46.77
31443;SHT31;18065;55.876;9.830;2023-12-28T04:27:53;22.22;46.76
31443;SHT31;18065;55.876;9.830;2023-12-28T04:30:22;22.20;46.80
31443;SHT31;18065;55.876;9.830;2023-12-28T04:32:51;22.22;46.76
31443;SHT31;18065;55.876;9.830;2023-12-28T04:35:20;22.24;46.79
31443;SHT31;18065;55.876;9.830;2023-12-28T04:37:51;22.20;46.79
31443;SHT31;18065;55.876;9.830;2023-12-28T04:40:20;22.24;46.82
31443;SHT31;18065;55.876;9.830;2023-12-28T04:42:49;22.24;46.82
31443;SHT31;18065;55.876;9.830;2023-12-28T04:45:18;22.22;46.84
31443;SHT31;18065;55.876;9.830;2023-12-28T04:47:48;22.21;46.82
31443;SHT31;18065;55.876;9.830;2023-12-28T04:50:17;22.25;46.86
31443;SHT31;18065;55.876;9.830;2023-12-28T04:52:45;22.24;46.80
31443;SHT31;18065;55.876;9.830;2023-12-28T04:55:17;22.22;46.81
31443;SHT31;18065;55.876;9.830;2023-12-28T04:57:46;22.21;46.83
31443;SHT31;18065;55.876;9.830;2023-12-28T05:00:16;22.24;46.81
31443;SHT31;18065;55.876;9.830;2023-12-28T05:02:45;22.22;46.83
31443;SHT31;18065;55.876;9.830;2023-12-28T05:05:13;22.24;46.78
31443;SHT31;18065;55.876;9.830;2023-12-28T05:07:42;22.22;46.82
31443;SHT31;18065;55.876;9.830;2023-12-28T05:10:11;22.24;46.84
31443;SHT31;18065;55.876;9.830;2023-12-28T05:12:43;22.22;46.82
31443;SHT31;18065;55.876;9.830;2023-12-28T05:15:12;22.22;46.81
31443;SHT31;18065;55.876;9.830;2023-12-28T05:17:41;22.21;46.84
31443;SHT31;18065;55.876;9.830;2023-12-28T05:20:10;22.21;46.86
31443;SHT31;18065;55.876;9.830;2023-12-28T05:22:39;22.21;46.87
31443;SHT31;18065;55.876;9.830;2023-12-28T05:25:08;22.20;46.87
31443;SHT31;18065;55.876;9.830;2023-12-28T05:27:37;22.21;46.85
31443;SHT31;18065;55.876;9.830;2023-12-28T05:30:11;22.21;46.85
31443;SHT31;18065;55.876;9.830;2023-12-28T05:32:40;22.20;46.84
31443;SHT31;18065;55.876;9.830;2023-12-28T05:35:09;22.21;46.84
31443;SHT31;18065;55.876;9.830;2023-12-28T05:37:38;22.21;46.83
31443;SHT31;18065;55.876;9.830;2023-12-28T05:40:08;22.20;46.80
31443;SHT31;18065;55.876;9.830;2023-12-28T05:42:37;22.21;46.79
31443;SHT31;18065;55.876;9.830;2023-12-28T05:45:07;22.22;46.78
31443;SHT31;18065;55.876;9.830;2023-12-28T05:47:38;22.20;46.77
31443;SHT31;18065;55.876;9.830;2023-12-28T05:50:08;22.20;46.80
31443;SHT31;18065;55.876;9.830;2023-12-28T05:52:37;22.20;46.74
31443;SHT31;18065;55.876;9.830;2023-12-28T05:55:06;22.21;46.73
31443;SHT31;18065;55.876;9.830;2023-12-28T05:57:35;22.20;46.71
31443;SHT31;18065;55.876;9.830;2023-12-28T06:00:06;22.17;46.72
31443;SHT31;18065;55.876;9.830;2023-12-28T06:02:38;23.47;44.60
31443;SHT31;18065;55.876;9.830;2023-12-28T06:05:07;28.56;34.76
31443;SHT31;18065;55.876;9.830;2023-12-28T06:07:36;31.57;30.02
31443;SHT31;18065;55.876;9.830;2023-12-28T06:10:06;32.80;28.25
31443;SHT31;18065;55.876;9.830;2023-12-28T06:12:35;32.91;28.09
31443;SHT31;18065;55.876;9.830;2023-12-28T06:15:06;32.55;28.48
31443;SHT31;18065;55.876;9.830;2023-12-28T06:17:37;31.98;29.20
31443;SHT31;18065;55.876;9.830;2023-12-28T06:20:08;31.38;30.02
31443;SHT31;18065;55.876;9.830;2023-12-28T06:22:37;30.97;30.61
31443;SHT31;18065;55.876;9.830;2023-12-28T06:25:06;30.51;31.18
31443;SHT31;18065;55.876;9.830;2023-12-28T06:27:35;30.01;31.97
31443;SHT31;18065;55.876;9.830;2023-12-28T06:30:05;29.55;32.67
31443;SHT31;18065;55.876;9.830;2023-12-28T06:32:34;29.07;33.46
31443;SHT31;18065;55.876;9.830;2023-12-28T06:35:07;28.60;34.21
31443;SHT31;18065;55.876;9.830;2023-12-28T06:37:36;28.18;34.89
31443;SHT31;18065;55.876;9.830;2023-12-28T06:40:06;27.79;35.51
31443;SHT31;18065;55.876;9.830;2023-12-28T06:42:35;27.43;36.09
31443;SHT31;18065;55.876;9.830;2023-12-28T06:45:05;27.09;36.62
31443;SHT31;18065;55.876;9.830;2023-12-28T06:47:34;26.78;37.20
31443;SHT31;18065;55.876;9.830;2023-12-28T06:50:07;26.47;37.73
31443;SHT31;18065;55.876;9.830;2023-12-28T06:52:36;26.22;38.22
31443;SHT31;18065;55.876;9.830;2023-12-28T06:55:05;25.94;38.78
31443;SHT31;18065;55.876;9.830;2023-12-28T06:57:34;25.73;39.27
31443;SHT31;18065;55.876;9.830;2023-12-28T07:00:04;25.53;39.67
31443;SHT31;18065;55.876;9.830;2023-12-28T07:02:33;25.33;40.08
31443;SHT31;18065;55.876;9.830;2023-12-28T07:05:06;25.15;40.42
31443;SHT31;18065;55.876;9.830;2023-12-28T07:07:35;25.00;40.79
31443;SHT31;18065;55.876;9.830;2023-12-28T07:10:05;24.84;41.04
31443;SHT31;18065;55.876;9.830;2023-12-28T07:12:34;24.71;41.40
31443;SHT31;18065;55.876;9.830;2023-12-28T07:15:04;24.53;41.62
31443;SHT31;18065;55.876;9.830;2023-12-28T07:17:35;24.43;41.89
31443;SHT31;18065;55.876;9.830;2023-12-28T07:20:08;24.32;42.05
31443;SHT31;18065;55.876;9.830;2023-12-28T07:22:38;24.22;42.28
31443;SHT31;18065;55.876;9.830;2023-12-28T07:25:07;24.13;42.41
31443;SHT31;18065;55.876;9.830;2023-12-28T07:27:36;24.05;42.50
31443;SHT31;18065;55.876;9.830;2023-12-28T07:30:06;23.96;42.75
31443;SHT31;18065;55.876;9.830;2023-12-28T07:32:36;23.86;42.82
31443;SHT31;18065;55.876;9.830;2023-12-28T07:35:08;23.82;43.04
31443;SHT31;18065;55.876;9.830;2023-12-28T07:37:37;23.73;43.18
31443;SHT31;18065;55.876;9.830;2023-12-28T07:40:07;23.65;43.27
31443;SHT31;18065;55.876;9.830;2023-12-28T07:42:36;23.62;43.42
31443;SHT31;18065;55.876;9.830;2023-12-28T07:45:05;23.54;43.41
31443;SHT31;18065;55.876;9.830;2023-12-28T07:47:34;23.51;43.48
31443;SHT31;18065;55.876;9.830;2023-12-28T07:50:07;27.27;36.83
31443;SHT31;18065;55.876;9.830;2023-12-28T07:52:36;31.80;29.46
31443;SHT31;18065;55.876;9.830;2023-12-28T07:55:06;34.12;26.54
31443;SHT31;18065;55.876;9.830;2023-12-28T07:57:35;35.36;25.20
31443;SHT31;18065;55.876;9.830;2023-12-28T08:00:05;35.31;25.16
31443;SHT31;18065;55.876;9.830;2023-12-28T08:02:34;34.61;25.83
31443;SHT31;18065;55.876;9.830;2023-12-28T08:05:07;33.82;26.66
31443;SHT31;18065;55.876;9.830;2023-12-28T08:07:36;33.12;27.49
31443;SHT31;18065;55.876;9.830;2023-12-28T08:10:06;32.48;28.34
31443;SHT31;18065;55.876;9.830;2023-12-28T08:12:35;31.91;29.04
31443;SHT31;18065;55.876;9.830;2023-12-28T08:15:06;31.47;29.70
31443;SHT31;18065;55.876;9.830;2023-12-28T08:17:35;30.94;30.47
31443;SHT31;18065;55.876;9.830;2023-12-28T08:20:07;30.39;31.36
31443;SHT31;18065;55.876;9.830;2023-12-28T08:22:36;29.90;32.07
31443;SHT31;18065;55.876;9.830;2023-12-28T08:25:06;29.42;32.89
31443;SHT31;18065;55.876;9.830;2023-12-28T08:27:35;28.98;33.59
31443;SHT31;18065;55.876;9.830;2023-12-28T08:30:05;28.59;34.29
31443;SHT31;18065;55.876;9.830;2023-12-28T08:32:35;28.22;34.91
31443;SHT31;18065;55.876;9.830;2023-12-28T08:35:07;27.82;35.51
31443;SHT31;18065;55.876;9.830;2023-12-28T08:37:36;27.53;36.08
31443;SHT31;18065;55.876;9.830;2023-12-28T08:40:08;27.23;36.59
31443;SHT31;18065;55.876;9.830;2023-12-28T08:42:37;26.96;37.10
31443;SHT31;18065;55.876;9.830;2023-12-28T08:45:06;26.69;37.60
31443;SHT31;18065;55.876;9.830;2023-12-28T08:47:35;26.48;38.02
31443;SHT31;18065;55.876;9.830;2023-12-28T08:50:08;26.22;38.46
31443;SHT31;18065;55.876;9.830;2023-12-28T08:52:37;26.01;38.91
31443;SHT31;18065;55.876;9.830;2023-12-28T08:55:06;25.81;39.31
31443;SHT31;18065;55.876;9.830;2023-12-28T08:57:35;25.62;39.69
31443;SHT31;18065;55.876;9.830;2023-12-28T09:00:05;25.47;39.98
31443;SHT31;18065;55.876;9.830;2023-12-28T09:02:34;25.31;40.33
31443;SHT31;18065;55.876;9.830;2023-12-28T09:05:03;25.18;40.61
31443;SHT31;18065;55.876;9.830;2023-12-28T09:07:35;25.02;40.89
31443;SHT31;18065;55.876;9.830;2023-12-28T09:10:09;24.92;41.12
31443;SHT31;18065;55.876;9.830;2023-12-28T09:12:40;24.80;41.31
31443;SHT31;18065;55.876;9.830;2023-12-28T09:15:09;24.59;41.69
31443;SHT31;18065;55.876;9.830;2023-12-28T09:17:38;24.37;41.62
31443;SHT31;18065;55.876;9.830;2023-12-28T09:20:09;24.25;41.77
31443;SHT31;18065;55.876;9.830;2023-12-28T09:22:40;24.15;42.05
31443;SHT31;18065;55.876;9.830;2023-12-28T09:25:09;24.35;41.95
31443;SHT31;18065;55.876;9.830;2023-12-28T09:27:39;30.35;31.95
31443;SHT31;18065;55.876;9.830;2023-12-28T09:30:09;34.13;26.68
31443;SHT31;18065;55.876;9.830;2023-12-28T09:32:38;35.56;25.08
31443;SHT31;18065;55.876;9.830;2023-12-28T09:35:07;36.20;24.40
31443;SHT31;18065;55.876;9.830;2023-12-28T09:37:36;35.76;24.74
31443;SHT31;18065;55.876;9.830;2023-12-28T09:40:09;34.91;25.66
31443;SHT31;18065;55.876;9.830;2023-12-28T09:42:45;34.09;26.34
31443;SHT31;18065;55.876;9.830;2023-12-28T09:45:16;33.24;27.54
31443;SHT31;18065;55.876;9.830;2023-12-28T09:47:46;32.49;28.42
31443;SHT31;18065;55.876;9.830;2023-12-28T09:50:17;31.82;29.26
31443;SHT31;18065;55.876;9.830;2023-12-28T09:52:46;31.17;30.08
31443;SHT31;18065;55.876;9.830;2023-12-28T09:55:18;30.55;31.00
31443;SHT31;18065;55.876;9.830;2023-12-28T09:57:47;30.03;31.66
31443;SHT31;18065;55.876;9.830;2023-12-28T10:00:16;29.47;32.47
31443;SHT31;18065;55.876;9.830;2023-12-28T10:02:46;28.95;33.30
31443;SHT31;18065;55.876;9.830;2023-12-28T10:05:15;28.51;33.90
31443;SHT31;18065;55.876;9.830;2023-12-28T10:07:44;28.08;34.52
31443;SHT31;18065;55.876;9.830;2023-12-28T10:10:13;27.68;35.13
31443;SHT31;18065;55.876;9.830;2023-12-28T10:12:46;27.29;35.78
31443;SHT31;18065;55.876;9.830;2023-12-28T10:15:15;27.02;36.32
31443;SHT31;18065;55.876;9.830;2023-12-28T10:17:45;26.68;36.78
31443;SHT31;18065;55.876;9.830;2023-12-28T10:20:15;26.38;37.23
31443;SHT31;18065;55.876;9.830;2023-12-28T10:22:44;26.11;37.70
31443;SHT31;18065;55.876;9.830;2023-12-28T10:25:13;25.83;38.22
31443;SHT31;18065;55.876;9.830;2023-12-28T10:27:45;25.62;38.63
31443;SHT31;18065;55.876;9.830;2023-12-28T10:30:14;25.38;39.04
31443;SHT31;18065;55.876;9.830;2023-12-28T10:32:43;25.15;39.53
31443;SHT31;18065;55.876;9.830;2023-12-28T10:35:12;24.98;39.77
31443;SHT31;18065;55.876;9.830;2023-12-28T10:37:42;25.67;38.86
31443;SHT31;18065;55.876;9.830;2023-12-28T10:40:13;31.43;29.73
31443;SHT31;18065;55.876;9.830;2023-12-28T10:42:51;34.61;25.78
31443;SHT31;18065;55.876;9.830;2023-12-28T10:45:22;36.11;24.17
31443;SHT31;18065;55.876;9.830;2023-12-28T10:48:00;36.85;23.46
31443;SHT31;18065;55.876;9.830;2023-12-28T10:50:35;36.92;23.41
31443;SHT31;18065;55.876;9.830;2023-12-28T10:53:19;37.07;23.20
31443;SHT31;18065;55.876;9.830;2023-12-28T10:55:57;36.41;23.84
31443;SHT31;18065;55.876;9.830;2023-12-28T10:58:37;35.39;24.97
31443;SHT31;18065;55.876;9.830;2023-12-28T11:01:09;34.50;25.96
31443;SHT31;18065;55.876;9.830;2023-12-28T11:03:41;33.63;27.01
31443;SHT31;18065;55.876;9.830;2023-12-28T11:06:11;32.87;28.15
31443;SHT31;18065;55.876;9.830;2023-12-28T11:08:41;32.19;29.25
31443;SHT31;18065;55.876;9.830;2023-12-28T11:11:15;31.48;30.29
31443;SHT31;18065;55.876;9.830;2023-12-28T11:13:48;30.85;31.17
31443;SHT31;18065;55.876;9.830;2023-12-28T11:16:19;30.29;32.20
31443;SHT31;18065;55.876;9.830;2023-12-28T11:18:49;29.94;32.89
31443;SHT31;18065;55.876;9.830;2023-12-28T11:21:18;29.94;33.07
31443;SHT31;18065;55.876;9.830;2023-12-28T11:23:48;29.57;33.66
31443;SHT31;18065;55.876;9.830;2023-12-28T11:26:17;29.18;34.39
31443;SHT31;18065;55.876;9.830;2023-12-28T11:28:49;28.78;35.04
31443;SHT31;18065;55.876;9.830;2023-12-28T11:31:18;28.41;35.63
31443;SHT31;18065;55.876;9.830;2023-12-28T11:33:47;28.10;36.28
31443;SHT31;18065;55.876;9.830;2023-12-28T11:36:22;27.81;36.97
31443;SHT31;18065;55.876;9.830;2023-12-28T11:38:53;27.38;37.73
31443;SHT31;18065;55.876;9.830;2023-12-28T11:41:25;27.04;38.04
31443;SHT31;18065;55.876;9.830;2023-12-28T11:43:57;26.79;38.57
31443;SHT31;18065;55.876;9.830;2023-12-28T11:46:26;26.53;39.15
31443;SHT31;18065;55.876;9.830;2023-12-28T11:49:03;26.28;39.68
31443;SHT31;18065;55.876;9.830;2023-12-28T11:51:34;26.01;40.01
31443;SHT31;18065;55.876;9.830;2023-12-28T11:54:04;25.84;40.47
31443;SHT31;18065;55.876;9.830;2023-12-28T11:56:33;28.50;36.21
31443;SHT31;18065;55.876;9.830;2023-12-28T11:59:05;33.24;28.93
31443;SHT31;18065;55.876;9.830;2023-12-28T12:01:35;35.54;26.06
31443;SHT31;18065;55.876;9.830;2023-12-28T12:04:05;36.68;24.86
31443;SHT31;18065;55.876;9.830;2023-12-28T12:06:34;36.72;24.73
31443;SHT31;18065;55.876;9.830;2023-12-28T12:09:03;35.96;25.51
31443;SHT31;18065;55.876;9.830;2023-12-28T12:11:32;35.09;26.34
31443;SHT31;18065;55.876;9.830;2023-12-28T12:14:08;34.21;27.36
31443;SHT31;18065;55.876;9.830;2023-12-28T12:16:38;33.42;28.26
31443;SHT31;18065;55.876;9.830;2023-12-28T12:19:07;32.73;29.17
31443;SHT31;18065;55.876;9.830;2023-12-28T12:21:36;32.08;30.23
31443;SHT31;18065;55.876;9.830;2023-12-28T12:24:05;31.41;31.13
31443;SHT31;18065;55.876;9.830;2023-12-28T12:26:34;30.83;32.04
31443;SHT31;18065;55.876;9.830;2023-12-28T12:29:06;30.27;32.96
31443;SHT31;18065;55.876;9.830;2023-12-28T12:31:35;29.76;33.94
31443;SHT31;18065;55.876;9.830;2023-12-28T12:34:07;29.31;34.75
31443;SHT31;18065;55.876;9.830;2023-12-28T12:36:37;28.88;35.55
31443;SHT31;18065;55.876;9.830;2023-12-28T12:39:06;28.51;36.25
31443;SHT31;18065;55.876;9.830;2023-12-28T12:41:35;28.15;36.94
31443;SHT31;18065;55.876;9.830;2023-12-28T12:44:08;27.84;37.51
31443;SHT31;18065;55.876;9.830;2023-12-28T12:46:38;27.51;38.20
31443;SHT31;18065;55.876;9.830;2023-12-28T12:49:08;27.27;38.91
31443;SHT31;18065;55.876;9.830;2023-12-28T12:51:38;27.02;39.28
31443;SHT31;18065;55.876;9.830;2023-12-28T12:54:07;26.79;39.88
31443;SHT31;18065;55.876;9.830;2023-12-28T12:56:37;26.52;40.44
31443;SHT31;18065;55.876;9.830;2023-12-28T12:59:13;26.31;40.91
31443;SHT31;18065;55.876;9.830;2023-12-28T13:01:43;26.10;41.31
31443;SHT31;18065;55.876;9.830;2023-12-28T13:04:14;25.90;41.76
31443;SHT31;18065;55.876;9.830;2023-12-28T13:06:44;25.79;41.92
31443;SHT31;18065;55.876;9.830;2023-12-28T13:09:13;25.80;42.31
31443;SHT31;18065;55.876;9.830;2023-12-28T13:11:42;26.11;41.58
31443;SHT31;18065;55.876;9.830;2023-12-28T13:14:17;26.14;41.54
31443;SHT31;18065;55.876;9.830;2023-12-28T13:16:46;26.05;41.70
31443;SHT31;18065;55.876;9.830;2023-12-28T13:19:20;25.90;41.91
31443;SHT31;18065;55.876;9.830;2023-12-28T13:21:49;25.76;42.20
31443;SHT31;18065;55.876;9.830;2023-12-28T13:24:17;25.59;42.47
31443;SHT31;18065;55.876;9.830;2023-12-28T13:26:46;25.41;42.86
31443;SHT31;18065;55.876;9.830;2023-12-28T13:29:18;25.25;43.19
31443;SHT31;18065;55.876;9.830;2023-12-28T13:31:47;25.18;43.38
31443;SHT31;18065;55.876;9.830;2023-12-28T13:34:16;25.04;43.92
31443;SHT31;18065;55.876;9.830;2023-12-28T13:36:45;24.88;44.19
31443;SHT31;18065;55.876;9.830;2023-12-28T13:39:14;24.77;44.32
31443;SHT31;18065;55.876;9.830;2023-12-28T13:41:43;24.65;44.68
31443;SHT31;18065;55.876;9.830;2023-12-28T13:44:12;24.57;45.32
31443;SHT31;18065;55.876;9.830;2023-12-28T13:46:44;24.44;45.73
31443;SHT31;18065;55.876;9.830;2023-12-28T13:49:12;24.37;45.87
31443;SHT31;18065;55.876;9.830;2023-12-28T13:51:41;24.32;46.26
31443;SHT31;18065;55.876;9.830;2023-12-28T13:54:12;24.20;46.49
31443;SHT31;18065;55.876;9.830;2023-12-28T13:56:40;24.15;46.45
31443;SHT31;18065;55.876;9.830;2023-12-28T13:59:10;24.09;46.83
31443;SHT31;18065;55.876;9.830;2023-12-28T14:01:42;24.02;46.89
31443;SHT31;18065;55.876;9.830;2023-12-28T14:04:11;23.94;46.85
31443;SHT31;18065;55.876;9.830;2023-12-28T14:06:40;23.91;46.99
31443;SHT31;18065;55.876;9.830;2023-12-28T14:09:09;23.82;47.00
31443;SHT31;18065;55.876;9.830;2023-12-28T14:11:38;23.81;46.97
31443;SHT31;18065;55.876;9.830;2023-12-28T14:14:07;23.77;46.98
31443;SHT31;18065;55.876;9.830;2023-12-28T14:16:36;23.71;47.03
31443;SHT31;18065;55.876;9.830;2023-12-28T14:19:07;23.89;46.59
31443;SHT31;18065;55.876;9.830;2023-12-28T14:21:37;23.94;46.39
31443;SHT31;18065;55.876;9.830;2023-12-28T14:24:07;23.95;46.25
31443;SHT31;18065;55.876;9.830;2023-12-28T14:26:40;23.96;46.08
31443;SHT31;18065;55.876;9.830;2023-12-28T14:29:11;23.92;46.10
31443;SHT31;18065;55.876;9.830;2023-12-28T14:31:42;23.88;46.11
31443;SHT31;18065;55.876;9.830;2023-12-28T14:34:15;23.84;46.09
31443;SHT31;18065;55.876;9.830;2023-12-28T14:36:45;23.78;46.14
31443;SHT31;18065;55.876;9.830;2023-12-28T14:39:16;23.77;46.15
31443;SHT31;18065;55.876;9.830;2023-12-28T14:41:47;23.69;46.24
31443;SHT31;18065;55.876;9.830;2023-12-28T14:44:15;23.64;46.24
31443;SHT31;18065;55.876;9.830;2023-12-28T14:46:45;23.61;46.21
31443;SHT31;18065;55.876;9.830;2023-12-28T14:49:17;23.57;46.21
31443;SHT31;18065;55.876;9.830;2023-12-28T14:51:45;23.57;46.19
31443;SHT31;18065;55.876;9.830;2023-12-28T14:54:14;23.51;46.23
31443;SHT31;18065;55.876;9.830;2023-12-28T14:56:43;23.48;46.30
31443;SHT31;18065;55.876;9.830;2023-12-28T14:59:12;23.43;46.33
31443;SHT31;18065;55.876;9.830;2023-12-28T15:01:41;23.41;46.32
31443;SHT31;18065;55.876;9.830;2023-12-28T15:04:10;23.38;46.30
31443;SHT31;18065;55.876;9.830;2023-12-28T15:06:41;23.38;46.31
31443;SHT31;18065;55.876;9.830;2023-12-28T15:09:10;23.33;46.33
31443;SHT31;18065;55.876;9.830;2023-12-28T15:11:40;23.30;46.38
31443;SHT31;18065;55.876;9.830;2023-12-28T15:14:09;23.27;46.45
31443;SHT31;18065;55.876;9.830;2023-12-28T15:16:39;23.28;46.38
31443;SHT31;18065;55.876;9.830;2023-12-28T15:19:08;23.26;46.40
31443;SHT31;18065;55.876;9.830;2023-12-28T15:21:38;23.24;46.33
31443;SHT31;18065;55.876;9.830;2023-12-28T15:24:10;23.20;46.34
31443;SHT31;18065;55.876;9.830;2023-12-28T15:26:39;23.19;46.38
31443;SHT31;18065;55.876;9.830;2023-12-28T15:29:08;23.14;46.25
31443;SHT31;18065;55.876;9.830;2023-12-28T15:31:38;23.16;46.30
31443;SHT31;18065;55.876;9.830;2023-12-28T15:34:07;23.13;46.31
31443;SHT31;18065;55.876;9.830;2023-12-28T15:36:35;23.13;46.27
31443;SHT31;18065;55.876;9.830;2023-12-28T15:39:04;23.09;46.22
31443;SHT31;18065;55.876;9.830;2023-12-28T15:41:36;23.07;46.20
31443;SHT31;18065;55.876;9.830;2023-12-28T15:44:05;23.09;46.18
31443;SHT31;18065;55.876;9.830;2023-12-28T15:46:34;23.07;46.26